Time;durP1;ratioP1;P1;durP2;ratioP2;P2;SDS_P1;SDS_P2;PMS_P1;PMS_P2;Temp;Humidity;BMP_temperature;BMP_pressure;BME280_temperature;BME280_humidity;BME280_pressure;Samples;Min_cycle;Max_cycle;Signal;HPM_P1;HPM_P2
2021/04/28 00:00:07;;;;;;;6.53;4.00;;;;;;;;;;5055245;28;20104;-80
2021/04/28 00:02:32;;;;;;;7.93;3.43;;;;;;;;;;5056462;28;20032;-80
2021/04/28 00:04:59;;;;;;;8.40;3.77;;;;;;;;;;5054944;28;20025;-79
2021/04/28 00:07:24;;;;;;;10.20;3.80;;;;;;;;;;5056501;28;20159;-80
2021/04/28 00:09:49;;;;;;;10.70;4.07;;;;;;;;;;5056194;28;20480;-79
2021/04/28 00:12:15;;;;;;;9.03;4.30;;;;;;;;;;5056031;28;20021;-80
2021/04/28 00:17:05;;;;;;;10.07;3.70;;;;;;;;;;5037392;28;20009;-79
2021/04/28 00:19:30;;;;;;;9.63;3.63;;;;;;;;;;5048468;28;20016;-80
2021/04/28 00:21:56;;;;;;;8.80;3.77;;;;;;;;;;5054754;28;20056;-80
2021/04/28 00:24:21;;;;;;;13.43;5.97;;;;;;;;;;5054623;28;20028;-79
2021/04/28 00:26:46;;;;;;;7.37;3.83;;;;;;;;;;5054742;28;20017;-80
2021/04/28 00:29:12;;;;;;;7.63;4.10;;;;;;;;;;5055804;28;20021;-80
2021/04/28 00:31:37;;;;;;;6.77;4.10;;;;;;;;;;5054392;28;20017;-80
2021/04/28 00:34:02;;;;;;;11.30;4.10;;;;;;;;;;5055407;28;20066;-80
2021/04/28 00:36:28;;;;;;;9.40;4.00;;;;;;;;;;5054151;28;20059;-80
2021/04/28 00:38:53;;;;;;;6.93;4.23;;;;;;;;;;5055837;28;20075;-80
2021/04/28 00:41:18;;;;;;;8.17;3.70;;;;;;;;;;5055673;28;20023;-80
2021/04/28 00:43:45;;;;;;;13.03;4.27;;;;;;;;;;5055486;28;20530;-80
2021/04/28 00:46:10;;;;;;;6.93;3.93;;;;;;;;;;5055620;28;20048;-80
2021/04/28 00:48:35;;;;;;;8.13;3.97;;;;;;;;;;5054246;28;20020;-80
2021/04/28 00:51:01;;;;;;;11.37;4.30;;;;;;;;;;5055580;28;20354;-80
2021/04/28 00:53:26;;;;;;;11.00;4.43;;;;;;;;;;5053833;28;20029;-79
2021/04/28 00:55:53;;;;;;;8.47;4.23;;;;;;;;;;5054208;28;20518;-80
2021/04/28 00:58:19;;;;;;;10.07;3.80;;;;;;;;;;5070896;28;20021;-80
2021/04/28 01:00:45;;;;;;;11.13;5.07;;;;;;;;;;5070635;28;20025;-80
2021/04/28 01:03:10;;;;;;;13.50;4.20;;;;;;;;;;5055301;28;20032;-80
2021/04/28 01:05:35;;;;;;;7.00;4.00;;;;;;;;;;5055411;28;20013;-80
2021/04/28 01:08:01;;;;;;;8.63;4.40;;;;;;;;;;5054040;28;20049;-80
2021/04/28 01:10:27;;;;;;;7.53;4.57;;;;;;;;;;5055002;28;20021;-80
2021/04/28 01:12:53;;;;;;;9.30;4.57;;;;;;;;;;5054968;28;20028;-79
2021/04/28 01:15:20;;;;;;;9.60;3.97;;;;;;;;;;5053852;28;20025;-80
2021/04/28 01:17:46;;;;;;;8.93;4.70;;;;;;;;;;5053633;28;20468;-79
2021/04/28 01:20:12;;;;;;;9.60;4.60;;;;;;;;;;5053816;28;20021;-80
2021/04/28 01:22:38;;;;;;;9.93;3.90;;;;;;;;;;5054687;28;20028;-80
2021/04/28 01:25:04;;;;;;;10.23;4.90;;;;;;;;;;5053686;28;20023;-80
2021/04/28 01:27:29;;;;;;;7.40;4.23;;;;;;;;;;5054413;28;20025;-80
2021/04/28 01:29:55;;;;;;;9.67;4.37;;;;;;;;;;5053596;28;20021;-80
2021/04/28 01:32:21;;;;;;;9.80;4.40;;;;;;;;;;5054698;28;20021;-80
2021/04/28 01:34:49;;;;;;;7.85;4.00;;;;;;;;;;5053369;28;20008;-80
2021/04/28 01:37:14;;;;;;;6.75;4.07;;;;;;;;;;5054677;28;20484;-80
2021/04/28 01:39:40;;;;;;;12.13;4.50;;;;;;;;;;5052115;28;20013;-80
2021/04/28 01:42:05;;;;;;;9.60;4.90;;;;;;;;;;5043533;28;20029;-80
2021/04/28 01:44:31;;;;;;;11.75;4.45;;;;;;;;;;5054372;28;20025;-80
2021/04/28 01:46:57;;;;;;;16.77;4.55;;;;;;;;;;5052445;28;20105;-80
2021/04/28 01:49:23;;;;;;;10.55;4.43;;;;;;;;;;5069787;28;20016;-80
2021/04/28 01:51:48;;;;;;;13.67;4.73;;;;;;;;;;5054182;28;20062;-80
2021/04/28 01:54:15;;;;;;;9.68;4.93;;;;;;;;;;5054361;28;20107;-80
2021/04/28 01:56:40;;;;;;;6.95;4.05;;;;;;;;;;5054189;28;20482;-80
2021/04/28 01:59:06;;;;;;;7.57;4.40;;;;;;;;;;5054246;28;20021;-80
2021/04/28 02:01:32;;;;;;;14.68;4.72;;;;;;;;;;5052746;28;20021;-80
2021/04/28 02:03:57;;;;;;;9.85;4.60;;;;;;;;;;5054165;28;20021;-80
2021/04/28 02:06:22;;;;;;;6.85;4.60;;;;;;;;;;5054248;28;20025;-80
2021/04/28 02:08:48;;;;;;;14.15;4.90;;;;;;;;;;5054137;28;20021;-80
2021/04/28 02:11:13;;;;;;;10.63;5.10;;;;;;;;;;5054057;28;20415;-80
2021/04/28 02:13:39;;;;;;;14.87;4.87;;;;;;;;;;5052356;28;20025;-80
2021/04/28 02:16:05;;;;;;;11.07;5.23;;;;;;;;;;5052709;28;20461;-80
2021/04/28 02:18:30;;;;;;;11.07;5.20;;;;;;;;;;5053687;28;20096;-80
2021/04/28 02:20:56;;;;;;;10.17;5.10;;;;;;;;;;5053844;28;20522;-80
2021/04/28 02:23:22;;;;;;;14.67;5.50;;;;;;;;;;5053913;28;20025;-80
2021/04/28 02:25:47;;;;;;;9.93;5.07;;;;;;;;;;5052385;28;20513;-80
2021/04/28 02:28:12;;;;;;;11.20;4.73;;;;;;;;;;5053582;28;20016;-80
2021/04/28 02:30:37;;;;;;;11.00;5.23;;;;;;;;;;5052461;28;20017;-80
2021/04/28 02:33:03;;;;;;;12.80;5.37;;;;;;;;;;5068911;28;20013;-80
2021/04/28 02:35:29;;;;;;;13.70;4.93;;;;;;;;;;5053546;28;20151;-80
2021/04/28 02:38:11;;;;;;;7.83;4.80;;;;;;;;;;5052255;28;20029;-80
2021/04/28 02:40:37;;;;;;;11.52;5.57;;;;;;;;;;5053739;28;20436;-80
2021/04/28 02:43:03;;;;;;;11.07;5.20;;;;;;;;;;5052110;28;20103;-80
2021/04/28 02:45:29;;;;;;;11.87;5.27;;;;;;;;;;5053496;28;20013;-80
2021/04/28 02:47:54;;;;;;;8.00;5.03;;;;;;;;;;5053262;28;20418;-80
2021/04/28 02:50:21;;;;;;;10.10;5.47;;;;;;;;;;5053438;28;20019;-79
2021/04/28 02:52:47;;;;;;;9.30;5.57;;;;;;;;;;5052024;28;20028;-80
2021/04/28 02:55:13;;;;;;;10.40;5.60;;;;;;;;;;5054535;28;20009;-79
2021/04/28 02:57:41;;;;;;;15.93;5.37;;;;;;;;;;5068662;28;20377;-79
2021/04/28 03:00:08;;;;;;;9.67;5.10;;;;;;;;;;5068498;28;20028;-80
2021/04/28 03:02:33;;;;;;;9.47;5.67;;;;;;;;;;5053168;28;20499;-79
2021/04/28 03:04:59;;;;;;;9.50;5.33;;;;;;;;;;5051895;28;20025;-80
2021/04/28 03:07:24;;;;;;;13.87;6.17;;;;;;;;;;5051869;28;20012;-79
2021/04/28 03:09:50;;;;;;;12.67;6.30;;;;;;;;;;5051954;28;20052;-80
2021/04/28 03:12:15;;;;;;;14.60;6.27;;;;;;;;;;5052942;28;20012;-80
2021/04/28 03:14:41;;;;;;;9.43;5.20;;;;;;;;;;5051891;28;20021;-80
2021/04/28 03:17:06;;;;;;;12.60;5.43;;;;;;;;;;5052992;28;20021;-80
2021/04/28 03:19:32;;;;;;;10.27;5.50;;;;;;;;;;5051917;28;20048;-79
2021/04/28 03:21:57;;;;;;;10.80;6.03;;;;;;;;;;5053252;28;20097;-79
2021/04/28 03:24:22;;;;;;;11.20;5.60;;;;;;;;;;5053055;28;20009;-80
2021/04/28 03:26:52;;;;;;;15.13;5.87;;;;;;;;;;5053066;28;20013;-80
2021/04/28 03:29:17;;;;;;;18.37;7.37;;;;;;;;;;5051454;28;20064;-80
2021/04/28 03:31:42;;;;;;;17.50;6.73;;;;;;;;;;5051790;28;20021;-79
2021/04/28 03:34:08;;;;;;;15.27;6.83;;;;;;;;;;5068446;28;20465;-80
2021/04/28 03:36:33;;;;;;;10.20;6.67;;;;;;;;;;5052793;28;20135;-80
2021/04/28 03:38:58;;;;;;;12.93;6.70;;;;;;;;;;5053002;28;20457;-79
2021/04/28 03:41:25;;;;;;;10.00;5.90;;;;;;;;;;5051479;28;21758;-79
2021/04/28 03:43:50;;;;;;;14.03;6.33;;;;;;;;;;5051663;28;20063;-80
2021/04/28 03:46:16;;;;;;;11.07;6.50;;;;;;;;;;5067504;28;20024;-80
2021/04/28 03:48:41;;;;;;;13.30;6.20;;;;;;;;;;5039668;28;20447;-80
2021/04/28 03:51:06;;;;;;;11.83;5.97;;;;;;;;;;5051560;28;20482;-79
2021/04/28 03:53:32;;;;;;;14.60;6.27;;;;;;;;;;5051356;28;20013;-79
2021/04/28 03:55:57;;;;;;;14.10;6.63;;;;;;;;;;5052674;28;20010;-79
2021/04/28 03:58:22;;;;;;;11.00;5.90;;;;;;;;;;5052813;28;20020;-80
2021/04/28 04:00:47;;;;;;;10.23;6.47;;;;;;;;;;5052779;28;20052;-79
2021/04/28 04:03:13;;;;;;;10.37;6.03;;;;;;;;;;5052650;28;20104;-79
2021/04/28 04:05:38;;;;;;;11.97;6.33;;;;;;;;;;5052851;28;20024;-79
2021/04/28 04:08:03;;;;;;;19.37;6.57;;;;;;;;;;5051410;28;20029;-80
2021/04/28 04:10:28;;;;;;;12.30;6.47;;;;;;;;;;5055901;28;20020;-80
2021/04/28 04:12:54;;;;;;;9.80;6.47;;;;;;;;;;5054842;28;20430;-79
2021/04/28 04:15:19;;;;;;;16.13;6.50;;;;;;;;;;5054457;28;20043;-80
2021/04/28 04:17:44;;;;;;;14.20;6.37;;;;;;;;;;5044118;28;20342;-79
2021/04/28 04:20:10;;;;;;;12.10;6.60;;;;;;;;;;5054966;28;20013;-79
2021/04/28 04:22:35;;;;;;;14.00;6.73;;;;;;;;;;5054718;28;20024;-79
2021/04/28 04:25:00;;;;;;;14.70;6.47;;;;;;;;;;5056116;28;20025;-79
2021/04/28 04:27:26;;;;;;;17.53;7.00;;;;;;;;;;5054792;28;20028;-79
2021/04/28 04:29:51;;;;;;;11.70;6.67;;;;;;;;;;5055885;28;20435;-80
2021/04/28 04:32:16;;;;;;;14.57;7.17;;;;;;;;;;5055901;28;20423;-80
2021/04/28 04:34:41;;;;;;;12.07;6.60;;;;;;;;;;5054456;28;20024;-80
2021/04/28 04:37:07;;;;;;;18.00;6.93;;;;;;;;;;5055992;28;20468;-80
2021/04/28 04:39:32;;;;;;;13.77;7.00;;;;;;;;;;5053051;28;20013;-79
2021/04/28 04:41:57;;;;;;;15.07;7.00;;;;;;;;;;5041840;28;20017;-79
2021/04/28 04:44:22;;;;;;;14.93;7.13;;;;;;;;;;5055810;28;20025;-80
2021/04/28 04:46:47;;;;;;;14.43;7.47;;;;;;;;;;5054348;28;20013;-80
2021/04/28 04:49:13;;;;;;;13.77;7.67;;;;;;;;;;5071101;28;20475;-79
2021/04/28 04:51:38;;;;;;;13.43;6.57;;;;;;;;;;5070783;28;20024;-80
2021/04/28 04:54:04;;;;;;;16.37;7.33;;;;;;;;;;5055520;28;20082;-79
2021/04/28 04:56:29;;;;;;;11.30;6.57;;;;;;;;;;5054142;28;20499;-80
2021/04/28 04:58:54;;;;;;;18.53;7.10;;;;;;;;;;5055480;28;20556;-80
2021/04/28 05:01:20;;;;;;;18.60;7.03;;;;;;;;;;5055450;28;20014;-80
2021/04/28 05:03:45;;;;;;;15.20;7.20;;;;;;;;;;5055191;28;20027;-79
2021/04/28 05:06:10;;;;;;;15.50;7.60;;;;;;;;;;5055467;28;20028;-79
2021/04/28 05:08:35;;;;;;;19.97;7.07;;;;;;;;;;5041140;28;20026;-79
2021/04/28 05:11:00;;;;;;;17.50;7.40;;;;;;;;;;5053988;28;20017;-80
2021/04/28 05:13:26;;;;;;;14.93;7.03;;;;;;;;;;5054872;28;20373;-80
2021/04/28 05:15:51;;;;;;;17.07;7.07;;;;;;;;;;5055164;28;20013;-80
2021/04/28 05:18:16;;;;;;;14.43;7.23;;;;;;;;;;5053862;28;20017;-80
2021/04/28 05:20:41;;;;;;;24.30;8.30;;;;;;;;;;5069133;28;20067;-80
2021/04/28 05:23:06;;;;;;;20.07;7.87;;;;;;;;;;5053783;28;20540;-80
2021/04/28 05:25:32;;;;;;;13.57;7.23;;;;;;;;;;5053492;28;20024;-79
2021/04/28 05:27:57;;;;;;;20.80;7.57;;;;;;;;;;5053572;28;20016;-80
2021/04/28 05:30:23;;;;;;;18.90;8.00;;;;;;;;;;5053675;28;20067;-80
2021/04/28 05:32:48;;;;;;;17.60;8.13;;;;;;;;;;5053185;28;20021;-79
2021/04/28 05:35:14;;;;;;;17.10;8.07;;;;;;;;;;5054690;28;20013;-80
2021/04/28 05:37:39;;;;;;;17.43;8.27;;;;;;;;;;5053409;28;20009;-80
2021/04/28 05:40:05;;;;;;;15.63;7.90;;;;;;;;;;5069886;28;20024;-80
2021/04/28 05:42:31;;;;;;;20.47;9.77;;;;;;;;;;5054543;28;20142;-80
2021/04/28 05:44:56;;;;;;;20.60;8.13;;;;;;;;;;5054407;28;20039;-80
2021/04/28 05:47:24;;;;;;;10.57;6.17;;;;;;;;;;5054373;28;20032;-79
2021/04/28 05:49:49;;;;;;;14.03;6.60;;;;;;;;;;5053085;28;20029;-80
2021/04/28 05:52:14;;;;;;;10.70;7.13;;;;;;;;;;5054390;28;20017;-80
2021/04/28 05:54:40;;;;;;;15.83;7.73;;;;;;;;;;5054419;28;20025;-80
2021/04/28 05:57:05;;;;;;;17.57;7.50;;;;;;;;;;5054232;28;20025;-80
2021/04/28 05:59:30;;;;;;;18.53;7.73;;;;;;;;;;5053030;28;20027;-80
2021/04/28 06:01:55;;;;;;;16.23;6.50;;;;;;;;;;5069592;28;20024;-80
2021/04/28 06:04:20;;;;;;;23.00;9.53;;;;;;;;;;5052942;28;20033;-80
2021/04/28 06:06:46;;;;;;;21.63;7.97;;;;;;;;;;5054058;28;20072;-80
2021/04/28 06:09:11;;;;;;;15.20;7.75;;;;;;;;;;5054084;28;20045;-80
2021/04/28 06:11:37;;;;;;;12.70;6.75;;;;;;;;;;5052788;28;20013;-80
2021/04/28 06:14:02;;;;;;;16.17;7.97;;;;;;;;;;5069013;28;20017;-80
2021/04/28 06:16:28;;;;;;;11.40;5.87;;;;;;;;;;5054169;28;20100;-80
2021/04/28 06:18:54;;;;;;;13.88;7.28;;;;;;;;;;5052527;28;20025;-80
2021/04/28 06:21:19;;;;;;;17.00;7.65;;;;;;;;;;5053861;28;20115;-80
2021/04/28 06:23:45;;;;;;;15.75;7.15;;;;;;;;;;5052386;28;20029;-80
2021/04/28 06:26:10;;;;;;;15.13;6.22;;;;;;;;;;5053903;28;20491;-80
2021/04/28 06:28:35;;;;;;;16.10;6.72;;;;;;;;;;5052448;28;20025;-80
2021/04/28 06:31:00;;;;;;;15.20;8.70;;;;;;;;;;5053318;28;20028;-80
2021/04/28 06:33:26;;;;;;;14.98;6.47;;;;;;;;;;5052863;28;20013;-79
2021/04/28 06:35:51;;;;;;;19.25;7.72;;;;;;;;;;5053071;28;20104;-79
2021/04/28 06:38:17;;;;;;;15.15;8.32;;;;;;;;;;5051220;28;20095;-79
2021/04/28 06:40:42;;;;;;;17.23;7.97;;;;;;;;;;5050016;28;20021;-79
2021/04/28 06:43:07;;;;;;;12.82;6.68;;;;;;;;;;5052850;28;20019;-80
2021/04/28 06:45:34;;;;;;;16.45;7.68;;;;;;;;;;5039335;28;20036;-79
2021/04/28 06:48:00;;;;;;;16.25;8.80;;;;;;;;;;5038905;28;20088;-79
2021/04/28 06:50:25;;;;;;;16.70;9.05;;;;;;;;;;5041429;28;20012;-79
2021/04/28 06:52:51;;;;;;;19.70;8.38;;;;;;;;;;5051563;28;20522;-79
2021/04/28 06:55:16;;;;;;;14.85;8.13;;;;;;;;;;5043094;28;20027;-79
2021/04/28 06:57:41;;;;;;;16.85;9.70;;;;;;;;;;5048753;28;20013;-79
2021/04/28 07:00:07;;;;;;;20.80;9.27;;;;;;;;;;5053207;28;20013;-79
2021/04/28 07:02:32;;;;;;;19.05;9.07;;;;;;;;;;5038271;28;20053;-79
2021/04/28 07:04:57;;;;;;;20.75;9.00;;;;;;;;;;5038350;28;20025;-79
2021/04/28 07:07:22;;;;;;;16.48;9.48;;;;;;;;;;5041576;28;20461;-79
2021/04/28 07:09:48;;;;;;;23.90;8.98;;;;;;;;;;5040043;28;20049;-79
2021/04/28 07:12:13;;;;;;;20.08;8.75;;;;;;;;;;5051171;28;20086;-79
2021/04/28 07:14:38;;;;;;;13.73;7.85;;;;;;;;;;5042099;28;20116;-79
2021/04/28 07:17:03;;;;;;;12.75;6.82;;;;;;;;;;5052106;28;20040;-79
2021/04/28 07:19:29;;;;;;;13.82;9.02;;;;;;;;;;5039887;28;20013;-79
2021/04/28 07:21:54;;;;;;;19.70;8.80;;;;;;;;;;5043328;28;20025;-79
2021/04/28 07:24:19;;;;;;;18.20;9.57;;;;;;;;;;5050189;28;20013;-79
2021/04/28 07:26:44;;;;;;;18.52;9.35;;;;;;;;;;5048419;28;20017;-79
2021/04/28 07:29:10;;;;;;;18.23;9.10;;;;;;;;;;5051694;28;20025;-79
2021/04/28 07:31:35;;;;;;;28.70;8.43;;;;;;;;;;5051108;28;20024;-79
2021/04/28 07:34:00;;;;;;;21.98;10.48;;;;;;;;;;5044343;28;20103;-79
2021/04/28 07:36:26;;;;;;;22.35;9.85;;;;;;;;;;5052696;28;20075;-79
2021/04/28 07:38:55;;;;;;;17.45;9.20;;;;;;;;;;5050176;28;20122;-79
2021/04/28 07:41:20;;;;;;;17.65;9.07;;;;;;;;;;5046226;28;20018;-79
2021/04/28 07:43:45;;;;;;;20.25;9.38;;;;;;;;;;5050529;28;20035;-78
2021/04/28 07:46:10;;;;;;;26.90;9.88;;;;;;;;;;5046522;28;20060;-79
2021/04/28 07:48:36;;;;;;;20.85;10.15;;;;;;;;;;5054834;28;20075;-80
2021/04/28 07:51:01;;;;;;;14.23;7.60;;;;;;;;;;5048534;28;20070;-79
2021/04/28 07:53:27;;;;;;;20.20;9.77;;;;;;;;;;5048303;28;20061;-79
2021/04/28 07:55:52;;;;;;;19.05;9.25;;;;;;;;;;5043422;28;20017;-79
2021/04/28 07:58:18;;;;;;;16.67;7.80;;;;;;;;;;5050025;28;20013;-80
2021/04/28 08:00:44;;;;;;;14.80;8.25;;;;;;;;;;5053047;28;20029;-79
2021/04/28 08:03:09;;;;;;;22.92;8.18;;;;;;;;;;5042411;28;20021;-79
2021/04/28 08:05:34;;;;;;;23.55;10.55;;;;;;;;;;5052540;28;20439;-80
2021/04/28 08:08:00;;;;;;;18.38;9.90;;;;;;;;;;5055110;28;20033;-79
2021/04/28 08:10:25;;;;;;;22.90;9.98;;;;;;;;;;5047729;28;20021;-80
2021/04/28 08:12:50;;;;;;;21.33;8.77;;;;;;;;;;5054241;28;20144;-79
2021/04/28 08:15:15;;;;;;;26.15;10.07;;;;;;;;;;5047947;28;20025;-80
2021/04/28 08:17:41;;;;;;;21.85;8.95;;;;;;;;;;5046448;28;20440;-80
2021/04/28 08:20:07;;;;;;;14.60;8.25;;;;;;;;;;5048281;28;20036;-80
2021/04/28 08:22:33;;;;;;;18.38;7.82;;;;;;;;;;5054580;28;20045;-80
2021/04/28 08:24:59;;;;;;;18.25;8.95;;;;;;;;;;5060810;28;20025;-80
2021/04/28 08:27:24;;;;;;;19.83;10.30;;;;;;;;;;5065315;28;20032;-80
2021/04/28 08:29:49;;;;;;;13.70;7.50;;;;;;;;;;5055923;28;20096;-79
2021/04/28 08:32:16;;;;;;;15.07;7.78;;;;;;;;;;5054834;28;20029;-79
2021/04/28 08:34:42;;;;;;;16.65;9.43;;;;;;;;;;5055743;28;20480;-80
2021/04/28 08:37:07;;;;;;;23.67;10.02;;;;;;;;;;5054605;28;20020;-79
2021/04/28 08:39:32;;;;;;;17.10;9.75;;;;;;;;;;5054398;28;20114;-80
2021/04/28 08:41:57;;;;;;;21.92;9.57;;;;;;;;;;5055812;28;20357;-79
2021/04/28 08:44:23;;;;;;;18.63;9.52;;;;;;;;;;5054544;28;20032;-79
2021/04/28 08:46:50;;;;;;;22.17;9.18;;;;;;;;;;5071015;28;20028;-79
2021/04/28 08:49:15;;;;;;;19.15;8.27;;;;;;;;;;5055663;28;20092;-80
2021/04/28 08:51:41;;;;;;;14.27;7.85;;;;;;;;;;5055536;28;20429;-80
2021/04/28 08:54:06;;;;;;;18.85;9.15;;;;;;;;;;5054008;28;20032;-80
2021/04/28 08:56:32;;;;;;;14.57;6.32;;;;;;;;;;5054524;28;20017;-80
2021/04/28 08:58:58;;;;;;;21.35;8.32;;;;;;;;;;5055193;28;20029;-80
2021/04/28 09:01:34;;;;;;;18.20;7.70;;;;;;;;;;5054780;28;20029;-79
2021/04/28 09:04:00;;;;;;;19.70;9.32;;;;;;;;;;5042185;28;20468;-79
2021/04/28 09:06:31;;;;;;;13.75;8.30;;;;;;;;;;5055391;28;20032;-80
2021/04/28 09:09:01;;;;;;;20.65;8.93;;;;;;;;;;5050675;28;20104;-80
2021/04/28 09:11:39;;;;;;;17.83;8.88;;;;;;;;;;5053944;28;20044;-80
2021/04/28 09:14:10;;;;;;;20.25;8.95;;;;;;;;;;5054439;28;20117;-80
2021/04/28 09:16:35;;;;;;;22.23;8.52;;;;;;;;;;5055338;28;20071;-80
2021/04/28 09:19:00;;;;;;;19.40;7.72;;;;;;;;;;5054507;28;20029;-80
2021/04/28 09:21:44;;;;;;;26.48;7.93;;;;;;;;;;5054822;28;20070;-80
2021/04/28 09:24:15;;;;;;;18.83;9.95;;;;;;;;;;5053284;28;20025;-80
2021/04/28 09:26:41;;;;;;;23.08;8.95;;;;;;;;;;5054560;28;20025;-80
2021/04/28 09:29:06;;;;;;;24.95;8.70;;;;;;;;;;5053180;28;20033;-79
2021/04/28 09:31:32;;;;;;;13.90;8.27;;;;;;;;;;5053803;28;20463;-80
2021/04/28 09:33:58;;;;;;;14.13;8.07;;;;;;;;;;5052393;28;20020;-80
2021/04/28 09:36:33;;;;;;;14.35;7.47;;;;;;;;;;5054652;28;20017;-80
2021/04/28 09:39:02;;;;;;;13.00;7.95;;;;;;;;;;5054758;28;20021;-80
2021/04/28 09:41:30;;;;;;;16.95;7.65;;;;;;;;;;5054344;28;20009;-80
2021/04/28 09:43:55;;;;;;;16.45;8.77;;;;;;;;;;5053540;28;20024;-80
2021/04/28 09:46:20;;;;;;;14.60;7.45;;;;;;;;;;5053435;28;20377;-80
2021/04/28 09:48:57;;;;;;;19.90;8.55;;;;;;;;;;5054481;28;20056;-80
2021/04/28 09:51:30;;;;;;;19.02;8.32;;;;;;;;;;5054292;28;20017;-80
2021/04/28 09:54:07;;;;;;;21.42;8.45;;;;;;;;;;5054575;28;20035;-80
2021/04/28 09:56:36;;;;;;;16.17;8.73;;;;;;;;;;5054707;28;20031;-80
2021/04/28 09:59:01;;;;;;;20.08;9.15;;;;;;;;;;5054389;28;20554;-80
2021/04/28 10:01:31;;;;;;;19.58;9.88;;;;;;;;;;5054365;28;20048;-80
2021/04/28 10:03:56;;;;;;;24.50;8.95;;;;;;;;;;5054236;28;20021;-80
2021/04/28 10:06:40;;;;;;;11.68;7.03;;;;;;;;;;5053519;28;20354;-80
2021/04/28 10:09:20;;;;;;;16.38;8.10;;;;;;;;;;5054331;28;20464;-80
2021/04/28 10:11:45;;;;;;;20.45;10.10;;;;;;;;;;5053930;28;20035;-80
2021/04/28 10:14:11;;;;;;;23.27;9.60;;;;;;;;;;5053880;28;20099;-80
2021/04/28 10:16:36;;;;;;;25.98;9.65;;;;;;;;;;5052736;28;20021;-80
2021/04/28 10:19:01;;;;;;;23.08;9.30;;;;;;;;;;5054089;28;20043;-80
2021/04/28 10:21:26;;;;;;;19.85;8.73;;;;;;;;;;5053996;28;20045;-79
2021/04/28 10:23:54;;;;;;;21.17;9.18;;;;;;;;;;5054045;28;20411;-80
2021/04/28 10:26:19;;;;;;;23.25;7.95;;;;;;;;;;5052566;28;20039;-80
2021/04/28 10:28:44;;;;;;;19.95;8.35;;;;;;;;;;5069073;28;20477;-80
2021/04/28 10:31:10;;;;;;;17.08;9.10;;;;;;;;;;5069005;28;20476;-80
2021/04/28 10:33:38;;;;;;;20.20;10.30;;;;;;;;;;5052443;28;20430;-80
2021/04/28 10:36:06;;;;;;;18.48;9.57;;;;;;;;;;5052168;28;20048;-80
2021/04/28 10:38:32;;;;;;;21.58;10.73;;;;;;;;;;5052371;28;20044;-80
2021/04/28 10:40:57;;;;;;;24.17;11.35;;;;;;;;;;5053650;28;20037;-80
2021/04/28 10:43:33;;;;;;;22.50;11.38;;;;;;;;;;5039510;28;20096;-80
2021/04/28 10:46:15;;;;;;;23.92;10.70;;;;;;;;;;5053625;28;20045;-80
2021/04/28 10:48:41;;;;;;;18.27;8.88;;;;;;;;;;5052286;28;20017;-80
2021/04/28 10:51:06;;;;;;;26.90;11.85;;;;;;;;;;5059873;28;20480;-80
2021/04/28 10:53:31;;;;;;;20.00;11.60;;;;;;;;;;5048842;28;20103;-80
2021/04/28 10:55:57;;;;;;;27.50;11.80;;;;;;;;;;5044219;28;20013;-80
2021/04/28 10:58:26;;;;;;;24.33;8.98;;;;;;;;;;5052011;28;20017;-80
2021/04/28 11:00:57;;;;;;;21.13;9.25;;;;;;;;;;5052109;28;20020;-80
2021/04/28 11:03:28;;;;;;;24.30;9.23;;;;;;;;;;5047069;28;20021;-80
2021/04/28 11:05:54;;;;;;;19.48;8.82;;;;;;;;;;5036274;28;20533;-80
2021/04/28 11:08:27;;;;;;;20.60;11.38;;;;;;;;;;5047450;28;20062;-80
2021/04/28 11:10:53;;;;;;;25.58;11.70;;;;;;;;;;5039508;28;20028;-80
2021/04/28 11:13:18;;;;;;;15.65;8.35;;;;;;;;;;5053155;28;20488;-80
2021/04/28 11:15:44;;;;;;;20.25;9.52;;;;;;;;;;5053147;28;20075;-80
2021/04/28 11:18:38;;;;;;;21.85;9.57;;;;;;;;;;5053674;28;20029;-80
2021/04/28 11:21:19;;;;;;;15.10;8.50;;;;;;;;;;5061509;28;20033;-80
2021/04/28 11:24:07;;;;;;;27.35;9.32;;;;;;;;;;5056038;28;20422;-80
2021/04/28 11:26:34;;;;;;;21.73;11.00;;;;;;;;;;5037793;28;20461;-80
2021/04/28 11:28:59;;;;;;;21.02;10.38;;;;;;;;;;5054127;28;20044;-80
2021/04/28 11:31:41;;;;;;;16.67;8.82;;;;;;;;;;5056048;28;20111;-80
2021/04/28 11:34:19;;;;;;;23.30;9.98;;;;;;;;;;5063698;28;20035;-80
2021/04/28 11:36:54;;;;;;;28.17;10.88;;;;;;;;;;5057791;28;20025;-80
2021/04/28 11:39:32;;;;;;;21.40;8.75;;;;;;;;;;5057655;28;20027;-80
2021/04/28 11:42:08;;;;;;;18.00;8.88;;;;;;;;;;5045283;28;20062;-80
2021/04/28 11:44:33;;;;;;;20.67;9.25;;;;;;;;;;5049949;28;20452;-80
2021/04/28 11:47:13;;;;;;;17.17;9.95;;;;;;;;;;5058155;28;20024;-80
2021/04/28 11:49:39;;;;;;;29.33;11.25;;;;;;;;;;5057920;28;20025;-80
2021/04/28 11:52:04;;;;;;;16.05;9.05;;;;;;;;;;5057694;28;20020;-80
2021/04/28 11:54:29;;;;;;;15.43;8.32;;;;;;;;;;5057929;28;20526;-80
2021/04/28 11:56:55;;;;;;;22.08;8.65;;;;;;;;;;5056076;28;20526;-80
2021/04/28 11:59:25;;;;;;;20.08;10.27;;;;;;;;;;5047540;28;20022;-80
2021/04/28 12:01:54;;;;;;;26.10;11.43;;;;;;;;;;5055297;28;20084;-80
2021/04/28 12:04:25;;;;;;;24.30;11.20;;;;;;;;;;5057291;28;20025;-80
2021/04/28 12:06:53;;;;;;;20.92;11.10;;;;;;;;;;5056483;28;20032;-80
2021/04/28 12:09:29;;;;;;;15.85;7.32;;;;;;;;;;5048641;28;20025;-80
2021/04/28 12:12:08;;;;;;;18.52;8.07;;;;;;;;;;5052593;28;20029;-80
2021/04/28 12:14:33;;;;;;;21.15;9.48;;;;;;;;;;5056489;28;20033;-80
2021/04/28 12:16:59;;;;;;;16.42;7.93;;;;;;;;;;5057782;28;20159;-80
2021/04/28 12:19:24;;;;;;;15.70;7.32;;;;;;;;;;5057451;28;20028;-80
2021/04/28 12:21:54;;;;;;;16.27;7.05;;;;;;;;;;5057168;28;20017;-80
2021/04/28 12:24:23;;;;;;;15.07;7.80;;;;;;;;;;5056100;28;20017;-80
2021/04/28 12:27:08;;;;;;;11.45;6.45;;;;;;;;;;5057776;28;20414;-80
2021/04/28 12:29:33;;;;;;;12.00;5.18;;;;;;;;;;5056185;28;20380;-80
2021/04/28 12:31:59;;;;;;;9.10;4.50;;;;;;;;;;5057124;28;20021;-80
2021/04/28 12:34:24;;;;;;;14.48;6.75;;;;;;;;;;5056965;28;20025;-80
2021/04/28 12:36:49;;;;;;;11.88;5.65;;;;;;;;;;5057449;28;20017;-80
2021/04/28 12:39:25;;;;;;;19.15;5.13;;;;;;;;;;5056883;28;20021;-80
2021/04/28 12:41:51;;;;;;;9.05;3.60;;;;;;;;;;5057394;28;20098;-80
2021/04/28 12:44:16;;;;;;;13.23;6.80;;;;;;;;;;5056932;28;20457;-80
2021/04/28 12:46:44;;;;;;;12.07;5.07;;;;;;;;;;5052609;28;20096;-80
2021/04/28 12:49:09;;;;;;;19.20;7.45;;;;;;;;;;5046660;28;20384;-80
2021/04/28 12:51:41;;;;;;;14.80;8.20;;;;;;;;;;5056862;28;20036;-80
2021/04/28 12:54:06;;;;;;;24.60;9.30;;;;;;;;;;5056858;28;20079;-81
2021/04/28 12:56:41;;;;;;;18.95;8.35;;;;;;;;;;5055506;28;20046;-80
2021/04/28 12:59:14;;;;;;;15.68;8.18;;;;;;;;;;5055300;28;20017;-80
2021/04/28 13:01:39;;;;;;;19.98;9.23;;;;;;;;;;5056675;28;20457;-80
2021/04/28 13:04:04;;;;;;;17.80;9.77;;;;;;;;;;5056612;28;20059;-81
2021/04/28 13:06:30;;;;;;;19.15;9.73;;;;;;;;;;5055112;28;20021;-80
2021/04/28 13:08:55;;;;;;;18.30;9.10;;;;;;;;;;5051395;28;20049;-80
2021/04/28 13:11:24;;;;;;;14.63;8.68;;;;;;;;;;5047953;28;20052;-80
2021/04/28 13:13:56;;;;;;;25.08;9.40;;;;;;;;;;5052321;28;20057;-80
2021/04/28 13:16:41;;;;;;;18.95;9.23;;;;;;;;;;5045690;28;20060;-80
2021/04/28 13:19:13;;;;;;;14.52;8.57;;;;;;;;;;5055999;28;20021;-80
2021/04/28 13:21:38;;;;;;;;;;;;;;;;;;5056830;28;20088;-80
2021/04/28 13:24:03;;;;;;;22.35;9.18;;;;;;;;;;5054642;28;19951;-80
2021/04/28 13:26:29;;;;;;;25.88;9.75;;;;;;;;;;5055134;28;20013;-80
2021/04/28 13:28:57;;;;;;;18.70;10.73;;;;;;;;;;5050884;28;20033;-81
2021/04/28 13:31:26;;;;;;;21.83;9.25;;;;;;;;;;5048035;28;20025;-80
2021/04/28 13:33:52;;;;;;;14.65;8.75;;;;;;;;;;5053298;28;20025;-80
2021/04/28 13:36:38;;;;;;;14.07;8.55;;;;;;;;;;5051536;28;20108;-80
2021/04/28 13:39:05;;;;;;;13.05;6.60;;;;;;;;;;5045548;28;20456;-80
2021/04/28 13:41:33;;;;;;;19.20;9.20;;;;;;;;;;5051957;28;20028;-80
2021/04/28 13:43:59;;;;;;;14.25;6.78;;;;;;;;;;5054303;28;20763;-81
2021/04/28 13:46:26;;;;;;;19.75;6.45;;;;;;;;;;5054304;28;20029;-80
2021/04/28 13:48:51;;;;;;;14.90;6.05;;;;;;;;;;5054074;28;20082;-80
2021/04/28 13:51:23;;;;;;;17.58;8.65;;;;;;;;;;5052558;28;20111;-80
2021/04/28 13:53:49;;;;;;;;;;;;;;;;;;5047426;28;20492;-80
2021/04/28 13:56:14;;;;;;;12.95;7.28;;;;;;;;;;5046861;28;19909;-80
2021/04/28 13:58:39;;;;;;;22.67;9.23;;;;;;;;;;5053603;28;20721;-81
2021/04/28 14:01:04;;;;;;;22.90;9.20;;;;;;;;;;5053777;28;20365;-80
2021/04/28 14:03:29;;;;;;;16.73;8.50;;;;;;;;;;5053390;28;20104;-81
2021/04/28 14:05:55;;;;;;;17.58;9.55;;;;;;;;;;5052377;28;20047;-80
2021/04/28 14:08:20;;;;;;;22.42;10.07;;;;;;;;;;5039601;28;20030;-80
2021/04/28 14:10:45;;;;;;;16.25;8.52;;;;;;;;;;5052310;28;20025;-80
2021/04/28 14:13:10;;;;;;;19.38;7.03;;;;;;;;;;5059606;28;20081;-80
2021/04/28 14:15:36;;;;;;;14.43;7.03;;;;;;;;;;5049298;28;20017;-80
2021/04/28 14:18:01;;;;;;;16.05;8.07;;;;;;;;;;5033599;28;20028;-80
2021/04/28 14:20:26;;;;;;;12.60;7.38;;;;;;;;;;5049285;28;20028;-80
2021/04/28 14:22:51;;;;;;;23.77;8.32;;;;;;;;;;5052267;28;20440;-80
2021/04/28 14:25:17;;;;;;;15.75;8.13;;;;;;;;;;5052236;28;20029;-81
2021/04/28 14:27:42;;;;;;;13.50;6.85;;;;;;;;;;5053486;28;20115;-80
2021/04/28 14:30:08;;;;;;;15.30;8.95;;;;;;;;;;5052341;28;20031;-80